sensor_id;sensor_type;location;lat;lon;timestamp;temperature;humidity
16313;DHT22;8265;52.622;13.296;2023-02-12T00:00:49;5.70;99.90
16313;DHT22;8265;52.622;13.296;2023-02-12T00:06:11;5.60;99.90
16313;DHT22;8265;52.622;13.296;2023-02-12T00:11:31;5.70;99.90
16313;DHT22;8265;52.622;13.296;2023-02-12T00:16:52;5.70;99.60
16313;DHT22;8265;52.622;13.296;2023-02-12T00:22:13;5.70;99.70
16313;DHT22;8265;52.622;13.296;2023-02-12T00:27:34;5.70;99.60
16313;DHT22;8265;52.622;13.296;2023-02-12T00:32:55;5.60;99.70
16313;DHT22;8265;52.622;13.296;2023-02-12T00:38:16;5.60;99.70
16313;DHT22;8265;52.622;13.296;2023-02-12T00:43:37;5.60;99.50
16313;DHT22;8265;52.622;13.296;2023-02-12T00:48:58;5.60;99.30
16313;DHT22;8265;52.622;13.296;2023-02-12T00:54:19;5.60;99.50
16313;DHT22;8265;52.622;13.296;2023-02-12T00:59:40;5.50;99.60
16313;DHT22;8265;52.622;13.296;2023-02-12T01:05:01;5.50;99.90
16313;DHT22;8265;52.622;13.296;2023-02-12T01:10:22;5.50;99.90
16313;DHT22;8265;52.622;13.296;2023-02-12T01:15:43;5.50;99.80
16313;DHT22;8265;52.622;13.296;2023-02-12T01:26:26;5.30;99.90
16313;DHT22;8265;52.622;13.296;2023-02-12T01:31:46;5.30;99.90
16313;DHT22;8265;52.622;13.296;2023-02-12T01:37:07;5.50;99.70
16313;DHT22;8265;52.622;13.296;2023-02-12T01:42:28;5.40;99.90
16313;DHT22;8265;52.622;13.296;2023-02-12T01:47:49;5.40;99.80
16313;DHT22;8265;52.622;13.296;2023-02-12T01:53:10;5.40;99.60
16313;DHT22;8265;52.622;13.296;2023-02-12T01:58:35;5.30;99.80
16313;DHT22;8265;52.622;13.296;2023-02-12T02:03:59;5.40;99.70
16313;DHT22;8265;52.622;13.296;2023-02-12T02:09:13;5.30;99.90
16313;DHT22;8265;52.622;13.296;2023-02-12T02:14:35;5.30;99.90
16313;DHT22;8265;52.622;13.296;2023-02-12T02:30:39;5.30;99.70
16313;DHT22;8265;52.622;13.296;2023-02-12T02:46:46;5.30;99.40
16313;DHT22;8265;52.622;13.296;2023-02-12T02:52:06;5.30;99.40
16313;DHT22;8265;52.622;13.296;2023-02-12T02:57:25;5.10;99.30
16313;DHT22;8265;52.622;13.296;2023-02-12T03:02:45;5.30;99.40
16313;DHT22;8265;52.622;13.296;2023-02-12T03:13:27;5.30;98.70
16313;DHT22;8265;52.622;13.296;2023-02-12T03:19:15;5.30;98.60
16313;DHT22;8265;52.622;13.296;2023-02-12T03:24:35;5.30;98.80
16313;DHT22;8265;52.622;13.296;2023-02-12T03:29:28;5.30;97.90
16313;DHT22;8265;52.622;13.296;2023-02-12T03:34:50;5.30;98.30
16313;DHT22;8265;52.622;13.296;2023-02-12T03:40:18;5.30;97.70
16313;DHT22;8265;52.622;13.296;2023-02-12T03:50:56;5.30;98.00
16313;DHT22;8265;52.622;13.296;2023-02-12T03:56:14;5.30;97.70
16313;DHT22;8265;52.622;13.296;2023-02-12T04:01:34;5.30;97.50
16313;DHT22;8265;52.622;13.296;2023-02-12T04:06:55;5.20;98.00
16313;DHT22;8265;52.622;13.296;2023-02-12T04:23:15;4.90;98.80
16313;DHT22;8265;52.622;13.296;2023-02-12T04:28:25;4.70;98.80
16313;DHT22;8265;52.622;13.296;2023-02-12T04:34:27;4.90;99.30
16313;DHT22;8265;52.622;13.296;2023-02-12T04:39:05;5.20;98.70
16313;DHT22;8265;52.622;13.296;2023-02-12T04:44:24;5.10;96.90
16313;DHT22;8265;52.622;13.296;2023-02-12T04:49:43;5.10;97.00
16313;DHT22;8265;52.622;13.296;2023-02-12T04:55:04;5.10;97.60
16313;DHT22;8265;52.622;13.296;2023-02-12T05:00:25;5.00;97.80
16313;DHT22;8265;52.622;13.296;2023-02-12T05:05:46;4.50;98.50
16313;DHT22;8265;52.622;13.296;2023-02-12T05:11:07;4.30;99.50
16313;DHT22;8265;52.622;13.296;2023-02-12T05:16:28;4.30;99.90
16313;DHT22;8265;52.622;13.296;2023-02-12T05:21:49;4.30;99.90
16313;DHT22;8265;52.622;13.296;2023-02-12T05:27:10;4.20;99.90
16313;DHT22;8265;52.622;13.296;2023-02-12T05:32:31;4.10;99.90
16313;DHT22;8265;52.622;13.296;2023-02-12T05:37:52;4.10;99.90
16313;DHT22;8265;52.622;13.296;2023-02-12T05:43:13;4.00;99.90
16313;DHT22;8265;52.622;13.296;2023-02-12T05:48:34;4.00;99.90
16313;DHT22;8265;52.622;13.296;2023-02-12T05:53:56;3.90;99.90
16313;DHT22;8265;52.622;13.296;2023-02-12T05:59:19;3.90;99.90
16313;DHT22;8265;52.622;13.296;2023-02-12T06:04:37;4.00;99.90
16313;DHT22;8265;52.622;13.296;2023-02-12T06:09:58;4.20;99.90
16313;DHT22;8265;52.622;13.296;2023-02-12T06:15:19;4.10;99.90
16313;DHT22;8265;52.622;13.296;2023-02-12T06:20:40;4.30;99.90
16313;DHT22;8265;52.622;13.296;2023-02-12T06:26:01;4.30;99.90
16313;DHT22;8265;52.622;13.296;2023-02-12T06:31:28;4.50;99.90
16313;DHT22;8265;52.622;13.296;2023-02-12T06:36:43;4.50;99.90
16313;DHT22;8265;52.622;13.296;2023-02-12T06:42:04;4.70;99.90
16313;DHT22;8265;52.622;13.296;2023-02-12T06:47:25;4.70;99.80
16313;DHT22;8265;52.622;13.296;2023-02-12T06:52:46;4.70;99.40
16313;DHT22;8265;52.622;13.296;2023-02-12T06:58:07;4.50;99.70
16313;DHT22;8265;52.622;13.296;2023-02-12T07:03:28;4.50;99.50
16313;DHT22;8265;52.622;13.296;2023-02-12T07:08:49;4.50;99.50
16313;DHT22;8265;52.622;13.296;2023-02-12T07:14:14;4.40;99.90
16313;DHT22;8265;52.622;13.296;2023-02-12T07:19:31;4.40;99.90
16313;DHT22;8265;52.622;13.296;2023-02-12T07:24:52;4.50;99.90
16313;DHT22;8265;52.622;13.296;2023-02-12T07:30:44;4.60;99.90
16313;DHT22;8265;52.622;13.296;2023-02-12T07:35:34;4.60;99.90
16313;DHT22;8265;52.622;13.296;2023-02-12T07:40:55;4.70;99.90
16313;DHT22;8265;52.622;13.296;2023-02-12T07:46:22;4.80;99.30
16313;DHT22;8265;52.622;13.296;2023-02-12T07:51:37;4.90;98.90
16313;DHT22;8265;52.622;13.296;2023-02-12T07:56:58;5.00;98.70
16313;DHT22;8265;52.622;13.296;2023-02-12T08:02:19;5.00;98.50
16313;DHT22;8265;52.622;13.296;2023-02-12T08:07:40;5.00;98.60
16313;DHT22;8265;52.622;13.296;2023-02-12T08:13:01;5.00;98.60
16313;DHT22;8265;52.622;13.296;2023-02-12T08:18:22;5.00;98.70
16313;DHT22;8265;52.622;13.296;2023-02-12T08:23:43;5.20;98.90
16313;DHT22;8265;52.622;13.296;2023-02-12T08:29:08;5.10;98.90
16313;DHT22;8265;52.622;13.296;2023-02-12T08:34:26;5.40;98.70
16313;DHT22;8265;52.622;13.296;2023-02-12T08:39:47;5.30;98.50
16313;DHT22;8265;52.622;13.296;2023-02-12T08:45:07;5.40;98.70
16313;DHT22;8265;52.622;13.296;2023-02-12T08:50:28;5.60;98.20
16313;DHT22;8265;52.622;13.296;2023-02-12T08:55:49;5.70;97.70
16313;DHT22;8265;52.622;13.296;2023-02-12T09:01:11;5.80;97.30
16313;DHT22;8265;52.622;13.296;2023-02-12T09:06:31;5.90;97.30
16313;DHT22;8265;52.622;13.296;2023-02-12T09:11:52;6.20;96.60
16313;DHT22;8265;52.622;13.296;2023-02-12T09:17:13;6.40;95.90
16313;DHT22;8265;52.622;13.296;2023-02-12T09:22:34;6.70;95.20
16313;DHT22;8265;52.622;13.296;2023-02-12T09:27:55;6.70;94.80
16313;DHT22;8265;52.622;13.296;2023-02-12T09:33:16;6.50;95.40
16313;DHT22;8265;52.622;13.296;2023-02-12T09:38:37;6.80;95.00
16313;DHT22;8265;52.622;13.296;2023-02-12T09:44:18;6.80;94.60
16313;DHT22;8265;52.622;13.296;2023-02-12T09:54:40;6.90;94.90
16313;DHT22;8265;52.622;13.296;2023-02-12T10:00:05;6.90;94.60
16313;DHT22;8265;52.622;13.296;2023-02-12T10:05:24;7.00;94.80
16313;DHT22;8265;52.622;13.296;2023-02-12T10:10:53;6.90;95.50
16313;DHT22;8265;52.622;13.296;2023-02-12T10:21:49;7.00;96.80
16313;DHT22;8265;52.622;13.296;2023-02-12T10:26:46;7.00;96.50
16313;DHT22;8265;52.622;13.296;2023-02-12T10:32:11;7.00;97.00
16313;DHT22;8265;52.622;13.296;2023-02-12T10:37:38;6.90;97.20
16313;DHT22;8265;52.622;13.296;2023-02-12T10:42:52;6.90;97.50
16313;DHT22;8265;52.622;13.296;2023-02-12T10:48:17;6.90;96.60
16313;DHT22;8265;52.622;13.296;2023-02-12T10:58:55;6.70;98.00
16313;DHT22;8265;52.622;13.296;2023-02-12T11:04:31;6.60;97.50
16313;DHT22;8265;52.622;13.296;2023-02-12T11:09:46;6.70;96.50
16313;DHT22;8265;52.622;13.296;2023-02-12T11:14:56;6.60;97.10
16313;DHT22;8265;52.622;13.296;2023-02-12T11:25:36;6.70;96.40
16313;DHT22;8265;52.622;13.296;2023-02-12T11:30:59;7.00;95.40
16313;DHT22;8265;52.622;13.296;2023-02-12T11:36:20;7.30;93.20
16313;DHT22;8265;52.622;13.296;2023-02-12T11:41:39;7.30;92.00
16313;DHT22;8265;52.622;13.296;2023-02-12T11:47:05;7.20;92.20
16313;DHT22;8265;52.622;13.296;2023-02-12T11:52:22;7.00;94.10
16313;DHT22;8265;52.622;13.296;2023-02-12T11:57:43;6.90;95.10
16313;DHT22;8265;52.622;13.296;2023-02-12T12:03:09;7.00;93.80
16313;DHT22;8265;52.622;13.296;2023-02-12T12:08:25;7.20;92.90
16313;DHT22;8265;52.622;13.296;2023-02-12T12:13:49;7.50;91.20
16313;DHT22;8265;52.622;13.296;2023-02-12T12:19:11;7.70;90.30
16313;DHT22;8265;52.622;13.296;2023-02-12T12:29:57;8.00;87.30
16313;DHT22;8265;52.622;13.296;2023-02-12T12:35:09;8.10;87.20
16313;DHT22;8265;52.622;13.296;2023-02-12T12:40:47;8.10;85.50
16313;DHT22;8265;52.622;13.296;2023-02-12T12:46:14;8.20;84.50
16313;DHT22;8265;52.622;13.296;2023-02-12T12:56:57;9.00;82.40
16313;DHT22;8265;52.622;13.296;2023-02-12T13:18:03;8.50;83.30
16313;DHT22;8265;52.622;13.296;2023-02-12T13:28:49;9.00;82.00
16313;DHT22;8265;52.622;13.296;2023-02-12T13:34:03;9.00;82.00
16313;DHT22;8265;52.622;13.296;2023-02-12T13:39:37;9.00;81.80
16313;DHT22;8265;52.622;13.296;2023-02-12T13:50:29;9.30;81.00
16313;DHT22;8265;52.622;13.296;2023-02-12T13:55:51;9.50;79.40
16313;DHT22;8265;52.622;13.296;2023-02-12T14:06:18;9.00;81.20
16313;DHT22;8265;52.622;13.296;2023-02-12T14:11:27;9.00;81.60
16313;DHT22;8265;52.622;13.296;2023-02-12T14:16:48;8.80;82.80
16313;DHT22;8265;52.622;13.296;2023-02-12T14:27:34;9.00;82.00
16313;DHT22;8265;52.622;13.296;2023-02-12T14:43:36;8.90;82.40
16313;DHT22;8265;52.622;13.296;2023-02-12T14:48:54;8.90;82.30
16313;DHT22;8265;52.622;13.296;2023-02-12T14:54:40;8.90;82.40
16313;DHT22;8265;52.622;13.296;2023-02-12T14:59:39;8.90;82.80
16313;DHT22;8265;52.622;13.296;2023-02-12T15:04:58;8.70;83.50
16313;DHT22;8265;52.622;13.296;2023-02-12T15:10:19;8.60;84.60
16313;DHT22;8265;52.622;13.296;2023-02-12T15:15:43;8.60;84.70
16313;DHT22;8265;52.622;13.296;2023-02-12T15:21:10;8.60;85.60
16313;DHT22;8265;52.622;13.296;2023-02-12T15:26:21;8.50;86.30
16313;DHT22;8265;52.622;13.296;2023-02-12T15:31:42;8.50;86.10
16313;DHT22;8265;52.622;13.296;2023-02-12T15:37:03;8.40;86.40
16313;DHT22;8265;52.622;13.296;2023-02-12T15:42:30;8.30;86.20
16313;DHT22;8265;52.622;13.296;2023-02-12T15:47:45;8.30;85.70
16313;DHT22;8265;52.622;13.296;2023-02-12T15:53:06;8.20;86.20
16313;DHT22;8265;52.622;13.296;2023-02-12T15:58:30;8.00;87.10
16313;DHT22;8265;52.622;13.296;2023-02-12T16:03:49;8.00;86.60
16313;DHT22;8265;52.622;13.296;2023-02-12T16:09:15;7.90;87.20
16313;DHT22;8265;52.622;13.296;2023-02-12T16:14:40;7.80;87.40
16313;DHT22;8265;52.622;13.296;2023-02-12T16:30:35;7.70;87.50
16313;DHT22;8265;52.622;13.296;2023-02-12T16:36:00;7.60;87.90
16313;DHT22;8265;52.622;13.296;2023-02-12T16:46:54;7.50;88.10
16313;DHT22;8265;52.622;13.296;2023-02-12T16:57:17;7.40;88.40
16313;DHT22;8265;52.622;13.296;2023-02-12T17:02:38;7.50;88.00
16313;DHT22;8265;52.622;13.296;2023-02-12T17:07:59;7.50;88.00
16313;DHT22;8265;52.622;13.296;2023-02-12T17:13:20;7.50;88.40
16313;DHT22;8265;52.622;13.296;2023-02-12T17:18:41;7.50;88.50
16313;DHT22;8265;52.622;13.296;2023-02-12T17:24:03;7.50;88.70
16313;DHT22;8265;52.622;13.296;2023-02-12T17:29:23;7.40;89.70
16313;DHT22;8265;52.622;13.296;2023-02-12T17:34:44;7.30;90.80
16313;DHT22;8265;52.622;13.296;2023-02-12T17:40:06;7.20;92.00
16313;DHT22;8265;52.622;13.296;2023-02-12T17:45:26;7.10;93.30
16313;DHT22;8265;52.622;13.296;2023-02-12T17:50:51;7.00;94.30
16313;DHT22;8265;52.622;13.296;2023-02-12T17:56:12;7.00;93.60
16313;DHT22;8265;52.622;13.296;2023-02-12T18:01:29;7.00;93.50
16313;DHT22;8265;52.622;13.296;2023-02-12T18:06:50;7.00;93.90
16313;DHT22;8265;52.622;13.296;2023-02-12T18:12:11;6.80;94.80
16313;DHT22;8265;52.622;13.296;2023-02-12T18:17:32;6.70;95.70
16313;DHT22;8265;52.622;13.296;2023-02-12T18:22:53;6.70;97.00
16313;DHT22;8265;52.622;13.296;2023-02-12T18:28:14;6.50;97.20
16313;DHT22;8265;52.622;13.296;2023-02-12T18:33:35;6.20;98.40
16313;DHT22;8265;52.622;13.296;2023-02-12T18:38:56;6.10;99.00
16313;DHT22;8265;52.622;13.296;2023-02-12T18:44:17;5.90;99.40
16313;DHT22;8265;52.622;13.296;2023-02-12T18:49:38;6.20;99.90
16313;DHT22;8265;52.622;13.296;2023-02-12T18:54:59;6.20;99.90
16313;DHT22;8265;52.622;13.296;2023-02-12T19:00:20;6.30;99.60
16313;DHT22;8265;52.622;13.296;2023-02-12T19:05:41;6.20;98.90
16313;DHT22;8265;52.622;13.296;2023-02-12T19:11:04;6.00;99.40
16313;DHT22;8265;52.622;13.296;2023-02-12T19:16:23;6.00;99.90
16313;DHT22;8265;52.622;13.296;2023-02-12T19:21:44;6.00;99.90
16313;DHT22;8265;52.622;13.296;2023-02-12T19:27:05;6.10;99.90
16313;DHT22;8265;52.622;13.296;2023-02-12T19:32:26;6.10;99.90
16313;DHT22;8265;52.622;13.296;2023-02-12T19:37:47;6.20;99.90
16313;DHT22;8265;52.622;13.296;2023-02-12T19:43:08;6.20;99.90
16313;DHT22;8265;52.622;13.296;2023-02-12T19:48:29;6.20;99.90
16313;DHT22;8265;52.622;13.296;2023-02-12T19:53:51;6.20;99.90
16313;DHT22;8265;52.622;13.296;2023-02-12T19:59:12;6.20;99.90
16313;DHT22;8265;52.622;13.296;2023-02-12T20:04:32;6.30;99.90
16313;DHT22;8265;52.622;13.296;2023-02-12T20:09:53;6.20;99.90
16313;DHT22;8265;52.622;13.296;2023-02-12T20:15:14;6.30;99.90
16313;DHT22;8265;52.622;13.296;2023-02-12T20:20:35;6.40;99.90
16313;DHT22;8265;52.622;13.296;2023-02-12T20:25:56;6.50;99.90
16313;DHT22;8265;52.622;13.296;2023-02-12T20:36:39;6.50;99.90
16313;DHT22;8265;52.622;13.296;2023-02-12T20:41:59;6.60;99.90
16313;DHT22;8265;52.622;13.296;2023-02-12T20:47:20;6.50;99.90
16313;DHT22;8265;52.622;13.296;2023-02-12T20:52:42;6.50;99.90
16313;DHT22;8265;52.622;13.296;2023-02-12T20:58:02;6.50;99.90
16313;DHT22;8265;52.622;13.296;2023-02-12T21:03:23;6.40;99.90
16313;DHT22;8265;52.622;13.296;2023-02-12T21:08:44;6.50;99.90
16313;DHT22;8265;52.622;13.296;2023-02-12T21:14:05;6.50;99.90
16313;DHT22;8265;52.622;13.296;2023-02-12T21:19:26;6.50;99.90
16313;DHT22;8265;52.622;13.296;2023-02-12T21:24:47;6.50;99.90
16313;DHT22;8265;52.622;13.296;2023-02-12T21:30:08;6.50;99.90
16313;DHT22;8265;52.622;13.296;2023-02-12T21:35:29;6.50;99.90
16313;DHT22;8265;52.622;13.296;2023-02-12T21:40:50;6.60;99.90
16313;DHT22;8265;52.622;13.296;2023-02-12T21:46:11;6.60;99.90
16313;DHT22;8265;52.622;13.296;2023-02-12T21:51:34;6.70;99.90
16313;DHT22;8265;52.622;13.296;2023-02-12T21:56:54;6.60;99.90
16313;DHT22;8265;52.622;13.296;2023-02-12T22:02:14;6.60;99.90
16313;DHT22;8265;52.622;13.296;2023-02-12T22:07:35;6.70;99.90
16313;DHT22;8265;52.622;13.296;2023-02-12T22:12:56;6.60;99.90
16313;DHT22;8265;52.622;13.296;2023-02-12T22:18:17;6.70;99.90
16313;DHT22;8265;52.622;13.296;2023-02-12T22:23:38;6.70;99.90
16313;DHT22;8265;52.622;13.296;2023-02-12T22:29:05;6.80;99.90
16313;DHT22;8265;52.622;13.296;2023-02-12T22:34:20;6.70;99.90
16313;DHT22;8265;52.622;13.296;2023-02-12T22:39:41;6.70;99.90
16313;DHT22;8265;52.622;13.296;2023-02-12T22:45:02;6.70;99.90
16313;DHT22;8265;52.622;13.296;2023-02-12T22:50:23;6.70;99.90
16313;DHT22;8265;52.622;13.296;2023-02-12T22:55:44;6.70;99.90
16313;DHT22;8265;52.622;13.296;2023-02-12T23:06:27;6.80;99.90
16313;DHT22;8265;52.622;13.296;2023-02-12T23:11:47;6.80;99.90
16313;DHT22;8265;52.622;13.296;2023-02-12T23:17:08;6.90;99.90
16313;DHT22;8265;52.622;13.296;2023-02-12T23:22:29;6.70;99.90
16313;DHT22;8265;52.622;13.296;2023-02-12T23:27:50;6.80;99.90
16313;DHT22;8265;52.622;13.296;2023-02-12T23:33:11;6.90;99.00
16313;DHT22;8265;52.622;13.296;2023-02-12T23:38:32;6.90;98.40
16313;DHT22;8265;52.622;13.296;2023-02-12T23:43:53;6.80;98.20
16313;DHT22;8265;52.622;13.296;2023-02-12T23:49:14;6.80;98.10
16313;DHT22;8265;52.622;13.296;2023-02-12T23:54:35;6.90;97.50
16313;DHT22;8265;52.622;13.296;2023-02-12T23:59:56;6.80;98.10
